Terminal Aerodrome Forecast
Issued by NWS

Home | Current Version | Previous Version | Text Only | Print | Product List | Glossary On
Versions: 1 2 3 4 5 6 7 8 9 10 11 12 13 14 15 16
000
FTUS42 KRAH 271740 AAA
TAFINT
TAF AMD
KINT 271740Z 2718/2818 08006KT P6SM VCSH SCT040
      TEMPO 2719/2722 VRB18G30KT 2SM SHRA BR SCT020 OVC035
     FM280100 VRB03KT P6SM SCT250
     FM280700 07004KT P6SM BKN011
     FM281600 05005KT P6SM SCT030=

USA.gov is the U.S. government's official web portal to all federal, state and local government web resources and services.